Time;durP1;ratioP1;P1;durP2;ratioP2;P2;SDS_P1;SDS_P2;PMS_P1;PMS_P2;Temp;Humidity;BMP_temperature;BMP_pressure;BME280_temperature;BME280_humidity;BME280_pressure;Samples;Min_cycle;Max_cycle;Signal;HPM_P1;HPM_P2
2023/09/06 00:02:11;;;;;;;9.43;7.80;;;;;;;29.04;73.96;100783.78;4905213;28;66070;-37
2023/09/06 00:04:42;;;;;;;13.80;8.70;;;;;;;29.09;72.82;100786.69;4907273;28;70402;-33
2023/09/06 00:07:12;;;;;;;17.58;10.05;;;;;;;29.07;76.16;100778.78;4923950;28;66553;-33
2023/09/06 00:09:42;;;;;;;21.35;11.30;;;;;;;29.19;74.02;100787.06;4927904;28;71559;-33
2023/09/06 00:12:12;;;;;;;25.55;11.07;;;;;;;29.23;77.29;100788.31;4931310;28;65298;-33
2023/09/06 00:14:42;;;;;;;21.40;10.65;;;;;;;29.31;76.53;100796.19;4926495;28;70039;-34
2023/09/06 00:17:12;;;;;;;25.13;9.73;;;;;;;29.31;76.89;100790.81;4925380;28;66057;-33
2023/09/06 00:19:42;;;;;;;15.43;8.63;;;;;;;29.37;76.98;100797.22;4929263;28;70794;-34
2023/09/06 00:22:12;;;;;;;14.48;9.05;;;;;;;29.39;76.30;100798.69;4921626;28;66635;-34
2023/09/06 00:24:42;;;;;;;14.13;8.02;;;;;;;29.42;77.48;100808.22;4904581;28;70099;-33
2023/09/06 00:27:14;;;;;;;11.57;7.65;;;;;;;29.44;78.15;100816.94;4923477;28;66934;-33
2023/09/06 00:29:46;;;;;;;12.32;7.30;;;;;;;29.46;78.84;100814.03;4909389;28;70044;-33
2023/09/06 00:32:16;;;;;;;10.48;7.03;;;;;;;29.48;78.70;100817.38;4913734;28;66076;-33
2023/09/06 00:34:46;;;;;;;10.73;6.93;;;;;;;29.53;77.69;100820.25;4916860;28;70047;-33
2023/09/06 00:37:16;;;;;;;8.20;6.40;;;;;;;29.54;79.36;100820.03;4917674;28;66585;-33
2023/09/06 00:39:46;;;;;;;10.98;7.65;;;;;;;29.56;78.74;100820.66;4897891;28;69315;-33
2023/09/06 00:42:16;;;;;;;12.68;6.63;;;;;;;29.56;79.29;100825.22;4919501;28;66324;-34
2023/09/06 00:44:46;;;;;;;13.80;6.63;;;;;;;29.62;79.28;100827.09;4916578;28;70567;-33
2023/09/06 00:47:18;;;;;;;15.63;7.00;;;;;;;29.67;76.06;100827.31;4903799;28;66688;-33
2023/09/06 00:49:48;;;;;;;8.45;6.15;;;;;;;29.54;79.49;100811.09;4898458;28;70190;-35
2023/09/06 00:52:18;;;;;;;11.52;6.05;;;;;;;29.77;73.96;100832.25;4920524;28;65758;-36
2023/09/06 00:54:48;;;;;;;10.50;5.60;;;;;;;29.65;72.73;100813.16;4931120;28;69992;-35
2023/09/06 00:57:19;;;;;;;7.03;6.13;;;;;;;29.81;72.41;100828.91;4942419;28;66085;-35
2023/09/06 00:59:50;;;;;;;9.73;5.95;;;;;;;29.73;71.97;100818.34;4917551;28;70715;-34
2023/09/06 01:02:20;;;;;;;6.32;5.72;;;;;;;29.88;72.06;100838.88;4926616;28;65912;-36
2023/09/06 01:04:51;;;;;;;8.65;5.00;;;;;;;29.93;71.47;100836.34;4924817;28;69950;-34
2023/09/06 01:07:28;;;;;;;10.38;5.32;;;;;;;29.96;70.99;100841.34;4924556;28;66052;-35
2023/09/06 01:09:58;;;;;;;8.95;5.47;;;;;;;29.98;71.23;100841.97;4911226;28;69862;-35
2023/09/06 01:12:28;;;;;;;8.10;4.80;;;;;;;29.96;71.09;100831.34;4920822;28;66560;-35
2023/09/06 01:14:58;;;;;;;5.40;4.90;;;;;;;30.03;71.24;100836.72;4930980;28;70183;-34
2023/09/06 01:17:31;;;;;;;6.43;4.93;;;;;;;29.99;71.03;100827.38;4940705;28;65779;-34
2023/09/06 01:20:15;;;;;;;5.93;5.32;;;;;;;29.73;70.57;100794.00;4930146;28;71155;-34
2023/09/06 01:23:02;;;;;;;5.65;5.07;;;;;;;30.04;70.70;100844.63;4906441;28;66599;-35
2023/09/06 01:25:33;;;;;;;5.72;4.80;;;;;;;29.99;70.63;100835.50;4919898;28;69181;-36
2023/09/06 01:28:03;;;;;;;5.30;4.80;;;;;;;30.14;70.39;100852.25;4923057;28;65724;-35
2023/09/06 01:30:36;;;;;;;4.93;4.53;;;;;;;30.15;70.57;100862.06;4919841;28;70588;-35
2023/09/06 01:33:06;;;;;;;10.07;5.55;;;;;;;30.16;70.75;100858.28;4923433;28;65279;-35
2023/09/06 01:35:36;;;;;;;6.78;4.85;;;;;;;30.19;70.72;100860.56;4922985;28;69674;-36
2023/09/06 01:38:06;;;;;;;6.72;5.40;;;;;;;30.22;70.02;100853.91;4920966;28;65917;-36
2023/09/06 01:40:36;;;;;;;6.35;5.45;;;;;;;30.22;70.26;100865.56;4905672;28;69547;-34
2023/09/06 01:43:08;;;;;;;6.97;4.95;;;;;;;30.22;70.65;100862.84;4906598;28;66136;-35
2023/09/06 01:45:52;;;;;;;5.15;4.68;;;;;;;30.25;70.09;100867.00;4922199;28;70074;-36
2023/09/06 01:48:22;;;;;;;5.50;4.60;;;;;;;30.26;70.19;100874.09;4908728;28;66118;-36
2023/09/06 01:50:54;;;;;;;4.80;4.40;;;;;;;30.29;70.41;100879.06;4888755;28;70144;-36
2023/09/06 01:53:24;;;;;;;;;;;;;;;29.96;71.53;100890.03;4915651;28;65716;-35
2023/09/06 01:55:54;;;;;;;6.78;4.57;;;;;;;30.27;70.61;100890.09;4918328;28;70267;-37
2023/09/06 01:58:24;;;;;;;5.30;4.80;;;;;;;30.31;69.86;100885.06;4897666;28;66746;-34
2023/09/06 02:00:55;;;;;;;5.60;4.70;;;;;;;30.35;70.09;100888.22;4892883;28;70453;-34
2023/09/06 02:03:27;;;;;;;5.43;4.93;;;;;;;30.36;70.02;100889.84;4923820;28;64914;-34
2023/09/06 02:06:00;;;;;;;5.00;4.60;;;;;;;30.38;70.30;100874.25;4920915;28;70281;-35
2023/09/06 02:08:32;;;;;;;5.05;4.53;;;;;;;30.39;70.30;100889.41;4926953;28;66672;-35
2023/09/06 02:11:02;;;;;;;6.18;5.00;;;;;;;30.40;69.82;100891.09;4921063;28;70249;-35
2023/09/06 02:13:33;;;;;;;6.05;5.03;;;;;;;30.44;70.15;100886.91;4915454;28;66147;-35
2023/09/06 02:16:06;;;;;;;5.50;4.35;;;;;;;30.45;69.78;100893.97;4928005;28;69162;-34
2023/09/06 02:18:36;;;;;;;4.63;4.18;;;;;;;30.44;69.98;100897.72;4904993;28;66292;-35
2023/09/06 02:21:06;;;;;;;4.50;4.20;;;;;;;30.48;69.71;100885.44;4906209;28;70353;-34
2023/09/06 02:23:36;;;;;;;4.40;4.00;;;;;;;30.50;70.00;100886.84;4905486;28;66342;-35
2023/09/06 02:26:07;;;;;;;4.25;3.85;;;;;;;30.53;69.74;100887.47;4922741;28;69109;-34
2023/09/06 02:28:36;;;;;;;4.57;4.15;;;;;;;30.48;69.68;100871.91;4900202;28;65600;-35
2023/09/06 02:31:07;;;;;;;4.03;3.72;;;;;;;30.57;69.86;100886.00;4904178;28;69692;-35
2023/09/06 02:33:38;;;;;;;3.95;3.50;;;;;;;30.47;69.85;100867.50;4911608;28;67116;-35
2023/09/06 02:36:08;;;;;;;4.30;3.90;;;;;;;30.60;69.57;100875.56;4925598;28;69542;-34
2023/09/06 02:38:38;;;;;;;4.30;3.90;;;;;;;30.62;69.73;100878.88;4907588;28;66636;-36
2023/09/06 02:41:08;;;;;;;3.70;3.40;;;;;;;30.64;69.54;100879.47;4920851;28;69634;-35
2023/09/06 02:43:38;;;;;;;3.75;3.45;;;;;;;30.66;69.59;100880.09;4922592;28;66358;-35
2023/09/06 02:46:10;;;;;;;4.15;3.85;;;;;;;30.68;69.53;100872.59;4922092;28;70195;-36
2023/09/06 02:48:40;;;;;;;4.00;3.60;;;;;;;30.69;69.70;100866.09;4920488;28;66378;-36
2023/09/06 02:51:11;;;;;;;4.47;3.70;;;;;;;30.72;69.58;100872.97;4905359;28;70365;-35
2023/09/06 02:53:45;;;;;;;4.57;3.90;;;;;;;30.75;69.36;100869.00;4905008;28;65768;-36
2023/09/06 02:56:16;;;;;;;3.72;3.42;;;;;;;30.77;69.60;100866.91;4920002;28;69487;-36
2023/09/06 02:58:47;;;;;;;4.38;3.97;;;;;;;30.75;69.52;100860.88;4922406;28;65910;-36
2023/09/06 03:01:20;;;;;;;5.30;3.85;;;;;;;30.76;69.62;100862.50;4921321;28;69924;-35
2023/09/06 03:03:53;;;;;;;3.83;3.53;;;;;;;30.80;69.75;100866.50;4920396;28;66703;-36
2023/09/06 03:06:33;;;;;;;3.60;3.30;;;;;;;30.84;69.26;100867.69;4888600;28;69012;-36
2023/09/06 03:09:06;;;;;;;3.90;3.47;;;;;;;30.65;69.87;100834.28;4905811;28;65833;-35
2023/09/06 03:11:38;;;;;;;3.47;3.22;;;;;;;30.81;69.30;100871.66;4924949;28;69895;-35
2023/09/06 03:14:08;;;;;;;3.13;2.83;;;;;;;30.88;69.03;100861.63;4924296;28;65761;-35
2023/09/06 03:16:38;;;;;;;4.47;3.15;;;;;;;30.86;69.42;100855.59;4922908;28;70243;-35
2023/09/06 03:19:13;;;;;;;4.65;3.97;;;;;;;30.92;69.16;100851.16;4904585;28;65694;-33
2023/09/06 03:21:44;;;;;;;4.05;3.70;;;;;;;30.94;69.21;100849.91;4903360;28;70058;-35
2023/09/06 03:24:14;;;;;;;5.55;3.55;;;;;;;30.94;69.00;100844.47;4869090;28;66548;-34
2023/09/06 03:26:44;;;;;;;3.97;3.38;;;;;;;30.95;68.77;100839.88;4927828;28;69972;-35
2023/09/06 03:29:17;;;;;;;3.58;3.28;;;;;;;30.98;69.15;100839.47;4922698;28;65855;-34
2023/09/06 03:31:47;;;;;;;4.13;3.73;;;;;;;31.00;69.22;100831.09;4924360;28;69476;-34
2023/09/06 03:34:18;;;;;;;4.68;3.55;;;;;;;31.04;69.00;100837.75;4906140;28;65297;-35
2023/09/06 03:36:51;;;;;;;4.90;2.97;;;;;;;31.04;68.76;100827.75;4898535;28;70402;-36
2023/09/06 03:39:28;;;;;;;3.10;2.83;;;;;;;31.07;68.98;100832.72;4913829;28;66540;-36
2023/09/06 03:42:08;;;;;;;3.38;3.08;;;;;;;31.09;68.91;100835.19;4880797;28;69247;-35
2023/09/06 03:44:38;;;;;;;3.28;2.97;;;;;;;31.09;69.07;100840.59;4905273;28;66438;-35
2023/09/06 03:47:14;;;;;;;3.42;2.95;;;;;;;31.10;69.11;100839.56;4927305;28;69466;-36
2023/09/06 03:49:45;;;;;;;3.35;2.97;;;;;;;31.09;68.76;100838.75;4928885;28;66023;-35
2023/09/06 03:52:16;;;;;;;3.00;2.73;;;;;;;31.12;69.01;100829.31;4922138;28;70452;-35
2023/09/06 03:54:50;;;;;;;4.30;2.55;;;;;;;31.15;69.00;100832.41;4908543;28;65634;-36
2023/09/06 03:57:22;;;;;;;5.13;2.78;;;;;;;31.19;68.88;100826.56;4917859;28;70367;-36
2023/09/06 03:59:53;;;;;;;3.78;2.80;;;;;;;31.15;68.80;100812.63;4892365;28;65331;-36
2023/09/06 04:02:27;;;;;;;3.38;3.08;;;;;;;31.23;68.93;100827.75;4911158;28;69752;-35
2023/09/06 04:04:57;;;;;;;2.67;2.47;;;;;;;31.21;68.88;100816.31;4896490;28;66589;-35
2023/09/06 04:07:31;;;;;;;3.10;2.80;;;;;;;31.27;68.82;100816.25;4892941;28;69878;-35
2023/09/06 04:10:02;;;;;;;2.88;2.42;;;;;;;31.30;68.87;100809.56;4919673;28;66256;-35
2023/09/06 04:12:35;;;;;;;3.85;3.38;;;;;;;31.29;68.81;100818.75;4877723;28;69685;-36
2023/09/06 04:15:07;;;;;;;2.78;2.58;;;;;;;31.33;68.99;100809.91;4904801;28;65314;-36
2023/09/06 04:17:38;;;;;;;3.85;2.72;;;;;;;31.35;68.58;100807.00;4890852;28;69709;-35
2023/09/06 04:20:19;;;;;;;2.78;2.58;;;;;;;31.38;68.65;100812.00;4917463;28;65714;-36
2023/09/06 04:22:51;;;;;;;3.17;2.47;;;;;;;31.30;68.91;100796.00;4916069;28;69005;-35
2023/09/06 04:25:22;;;;;;;2.53;2.10;;;;;;;31.40;68.54;100807.19;4919446;28;66405;-37
2023/09/06 04:27:54;;;;;;;3.00;2.30;;;;;;;31.33;68.32;100793.66;4912587;28;70222;-35
2023/09/06 04:30:32;;;;;;;2.88;2.58;;;;;;;31.47;68.66;100804.38;4908426;28;66133;-36
2023/09/06 04:33:04;;;;;;;3.17;2.28;;;;;;;31.50;68.49;100799.34;4914212;28;70521;-36
2023/09/06 04:35:38;;;;;;;3.30;2.22;;;;;;;31.44;68.36;100783.97;4892320;28;66623;-39
2023/09/06 04:38:12;;;;;;;3.00;2.25;;;;;;;31.45;68.49;100777.50;4890319;28;69233;-38
2023/09/06 04:40:45;;;;;;;2.28;2.00;;;;;;;31.56;68.42;100775.91;4909047;28;65213;-38
2023/09/06 04:43:19;;;;;;;2.30;2.10;;;;;;;31.57;68.20;100778.41;4890827;28;69927;-36
2023/09/06 04:45:50;;;;;;;3.03;2.33;;;;;;;31.58;68.71;100769.22;4919819;28;66333;-36
2023/09/06 04:48:23;;;;;;;2.30;2.10;;;;;;;31.60;68.26;100767.09;4906050;28;69977;-39
2023/09/06 04:50:59;;;;;;;2.33;2.13;;;;;;;31.63;68.27;100749.56;4906871;28;66068;-36
2023/09/06 04:53:30;;;;;;;2.47;2.28;;;;;;;31.42;68.03;100710.19;4920598;28;69507;-36
2023/09/06 04:56:04;;;;;;;3.15;2.25;;;;;;;31.69;68.01;100758.66;4903877;28;66547;-35
2023/09/06 04:58:40;;;;;;;3.00;2.30;;;;;;;31.70;68.00;100744.03;4904629;28;70090;-36
2023/09/06 05:01:10;;;;;;;2.92;2.03;;;;;;;31.65;67.91;100724.91;4918522;28;65290;-39
2023/09/06 05:03:41;;;;;;;2.63;2.13;;;;;;;31.73;67.86;100724.59;4904401;28;70430;-38
2023/09/06 05:06:12;;;;;;;3.00;2.10;;;;;;;31.70;68.04;100722.34;4916354;28;67106;-36
2023/09/06 05:08:44;;;;;;;7.05;1.90;;;;;;;31.77;67.93;100729.31;4889058;28;70025;-37
2023/09/06 05:11:21;;;;;;;2.00;1.80;;;;;;;31.79;67.80;100719.09;4908341;28;66200;-37
2023/09/06 05:13:52;;;;;;;2.77;2.27;;;;;;;31.81;67.41;100699.84;4898912;28;69345;-37
2023/09/06 05:16:26;;;;;;;2.75;2.30;;;;;;;31.85;67.52;100706.50;4907860;28;66378;-37
2023/09/06 05:18:56;;;;;;;2.55;2.17;;;;;;;31.87;67.49;100695.38;4920329;28;70560;-37
2023/09/06 05:21:35;;;;;;;2.90;2.03;;;;;;;31.90;67.06;100694.91;4908741;28;66389;-38
2023/09/06 05:24:05;;;;;;;2.22;2.03;;;;;;;31.91;67.59;100692.03;4896968;28;70331;-38
2023/09/06 05:26:35;;;;;;;3.03;2.10;;;;;;;31.94;67.23;100690.72;4910512;28;66843;-38
2023/09/06 05:29:05;;;;;;;2.53;2.30;;;;;;;31.97;67.22;100677.53;4900775;28;70411;-36
2023/09/06 05:31:36;;;;;;;1.98;1.73;;;;;;;31.99;67.12;100680.00;4901953;28;65913;-37
2023/09/06 05:34:06;;;;;;;2.22;2.03;;;;;;;32.01;67.23;100670.59;4909001;28;69237;-37
2023/09/06 05:36:36;;;;;;;4.13;2.15;;;;;;;32.00;67.00;100658.06;4884071;28;66883;-36
2023/09/06 05:39:06;;;;;;;2.25;1.95;;;;;;;32.05;67.04;100657.38;4919350;28;70131;-36
2023/09/06 05:41:37;;;;;;;2.83;2.40;;;;;;;32.07;67.17;100659.84;4915276;28;66465;-39
2023/09/06 05:44:08;;;;;;;;;;;;;;;31.81;67.83;100649.13;4905395;28;70216;-38
2023/09/06 05:46:38;;;;;;;3.95;1.73;;;;;;;32.07;67.06;100657.97;4917641;28;67094;-37
2023/09/06 05:49:12;;;;;;;2.72;1.83;;;;;;;32.11;66.89;100653.72;4923745;28;70520;-37
2023/09/06 05:51:45;;;;;;;2.70;2.17;;;;;;;32.14;67.01;100647.81;4903589;28;66223;-37
2023/09/06 05:54:16;;;;;;;1.77;1.67;;;;;;;32.15;66.83;100635.91;4906053;28;70957;-36
2023/09/06 05:56:46;;;;;;;1.98;1.77;;;;;;;32.20;66.82;100640.63;4910654;28;66541;-36
2023/09/06 05:59:16;;;;;;;1.73;1.63;;;;;;;32.21;66.70;100632.25;4915453;28;69657;-36
2023/09/06 06:01:49;;;;;;;2.28;1.80;;;;;;;32.22;66.74;100633.91;4902008;28;65886;-38
2023/09/06 06:04:20;;;;;;;2.20;2.00;;;;;;;32.24;66.65;100631.78;4918864;28;69739;-36
2023/09/06 06:06:50;;;;;;;2.35;2.10;;;;;;;32.27;66.67;100627.78;4897680;28;66909;-37
2023/09/06 06:09:24;;;;;;;1.80;1.70;;;;;;;32.31;66.51;100618.09;4918293;28;69346;-38
2023/09/06 06:11:55;;;;;;;4.57;1.73;;;;;;;32.28;66.38;100603.09;4920499;28;65980;-36
2023/09/06 06:14:28;;;;;;;3.63;2.10;;;;;;;32.36;66.31;100612.78;4917956;28;69300;-40
2023/09/06 06:16:58;;;;;;;4.15;2.20;;;;;;;32.40;66.38;100602.25;4922552;28;66087;-36
2023/09/06 06:19:28;;;;;;;1.80;1.67;;;;;;;32.42;66.18;100606.41;4915323;28;70141;-37
2023/09/06 06:22:01;;;;;;;2.63;1.98;;;;;;;32.17;66.02;100556.97;4905979;28;66833;-35
2023/09/06 06:24:34;;;;;;;2.25;1.90;;;;;;;32.19;65.97;100549.44;4916498;28;70068;-37
2023/09/06 06:27:05;;;;;;;2.03;1.83;;;;;;;32.51;66.22;100585.16;4933337;28;66459;-40
2023/09/06 06:29:36;;;;;;;1.95;1.75;;;;;;;32.53;66.04;100587.66;4917220;28;69682;-36
2023/09/06 06:32:07;;;;;;;1.98;1.77;;;;;;;32.52;66.22;100575.16;4921468;28;65620;-36
2023/09/06 06:34:39;;;;;;;2.10;1.90;;;;;;;32.57;66.20;100586.09;4914071;28;69954;-35
2023/09/06 06:37:08;;;;;;;;;;;;;;;32.34;66.48;100587.75;4897644;28;65340;-36
2023/09/06 06:39:38;;;;;;;2.15;1.60;;;;;;;32.57;65.84;100575.25;4913006;28;70254;-36
2023/09/06 06:42:11;;;;;;;2.35;2.15;;;;;;;32.65;65.96;100583.00;4929061;28;66616;-37
2023/09/06 06:44:46;;;;;;;3.47;2.10;;;;;;;32.69;66.00;100584.19;4890792;28;70083;-37
2023/09/06 06:47:17;;;;;;;2.17;1.98;;;;;;;32.67;66.11;100580.88;4915849;28;65129;-35
2023/09/06 06:49:49;;;;;;;2.15;2.00;;;;;;;32.74;65.57;100578.88;4914928;28;70008;-36
2023/09/06 06:52:19;;;;;;;2.47;2.13;;;;;;;32.78;65.68;100577.31;4913938;28;65302;-35
2023/09/06 06:54:49;;;;;;;2.33;2.13;;;;;;;32.81;65.60;100576.84;4917067;28;69287;-37
2023/09/06 06:57:19;;;;;;;4.10;2.38;;;;;;;32.82;65.43;100583.94;4904355;28;66543;-35
2023/09/06 06:59:49;;;;;;;2.35;2.13;;;;;;;32.82;65.65;100583.94;4928928;28;69703;-36
2023/09/06 07:02:20;;;;;;;2.38;2.17;;;;;;;32.88;65.60;100580.25;4907858;28;66180;-36
2023/09/06 07:04:50;;;;;;;2.55;2.35;;;;;;;32.89;65.44;100584.59;4922851;28;69212;-36
2023/09/06 07:07:21;;;;;;;2.72;2.50;;;;;;;32.91;65.53;100593.34;4927845;28;66559;-36
2023/09/06 07:09:51;;;;;;;2.90;2.70;;;;;;;32.88;65.09;100577.53;4908255;28;70155;-36
2023/09/06 07:12:21;;;;;;;3.90;2.85;;;;;;;32.92;65.09;100577.88;4910993;28;65920;-36
2023/09/06 07:14:51;;;;;;;2.50;2.30;;;;;;;32.93;65.13;100569.50;4919694;28;70118;-36
2023/09/06 07:17:22;;;;;;;3.03;2.50;;;;;;;33.00;65.33;100593.00;4919999;28;66753;-35
2023/09/06 07:19:52;;;;;;;2.80;2.60;;;;;;;33.04;65.19;100586.00;4912851;28;70350;-36
2023/09/06 07:22:22;;;;;;;3.20;2.72;;;;;;;33.07;65.05;100591.81;4910371;28;65342;-35
2023/09/06 07:24:52;;;;;;;3.33;3.03;;;;;;;33.09;65.05;100580.66;4925018;28;70384;-35
2023/09/06 07:27:22;;;;;;;3.22;2.90;;;;;;;33.11;65.05;100575.81;4934838;28;66673;-35
2023/09/06 07:29:52;;;;;;;3.20;2.92;;;;;;;33.14;64.63;100575.34;4923144;28;70060;-35
2023/09/06 07:32:22;;;;;;;4.15;3.30;;;;;;;33.18;64.78;100570.22;4934817;28;66715;-37
2023/09/06 07:34:55;;;;;;;3.55;3.25;;;;;;;33.19;64.75;100571.91;4919648;28;70510;-36
2023/09/06 07:37:25;;;;;;;3.92;3.63;;;;;;;33.22;64.60;100572.22;4925941;28;66163;-35
2023/09/06 07:39:59;;;;;;;3.58;3.28;;;;;;;33.05;64.22;100536.03;4902102;28;70372;-35
2023/09/06 07:42:30;;;;;;;7.60;3.80;;;;;;;33.26;64.63;100565.22;4907189;28;66289;-35
2023/09/06 07:45:01;;;;;;;4.35;3.95;;;;;;;33.27;64.48;100557.91;4921606;28;70230;-36
2023/09/06 07:47:31;;;;;;;3.88;3.58;;;;;;;33.32;64.76;100571.56;4934281;28;66818;-36
2023/09/06 07:50:04;;;;;;;3.97;3.78;;;;;;;33.38;64.46;100568.72;4934107;28;70388;-36
2023/09/06 07:52:36;;;;;;;4.43;3.92;;;;;;;33.41;64.33;100569.31;4907789;28;65648;-37
2023/09/06 07:55:07;;;;;;;6.10;4.97;;;;;;;33.44;64.02;100566.91;4931756;28;70523;-35
2023/09/06 07:57:37;;;;;;;8.18;7.68;;;;;;;33.45;64.18;100570.44;4915511;28;66604;-37
2023/09/06 08:00:08;;;;;;;8.60;7.80;;;;;;;33.47;64.37;100568.31;4904595;28;69197;-37
2023/09/06 08:02:41;;;;;;;9.10;8.25;;;;;;;33.50;64.30;100562.38;4900777;28;65324;-37
2023/09/06 08:05:11;;;;;;;8.88;8.23;;;;;;;33.52;64.01;100566.53;4919977;28;70448;-36
2023/09/06 08:07:41;;;;;;;8.65;7.75;;;;;;;33.54;64.15;100563.56;4918136;28;66506;-38
2023/09/06 08:10:13;;;;;;;8.73;7.90;;;;;;;33.57;63.92;100561.19;4922905;28;69184;-36
2023/09/06 08:12:43;;;;;;;8.88;8.30;;;;;;;33.55;64.01;100552.44;4927177;28;66306;-36
2023/09/06 08:15:13;;;;;;;8.05;7.50;;;;;;;33.57;64.03;100553.03;4919946;28;70353;-36
2023/09/06 08:17:47;;;;;;;8.88;8.20;;;;;;;33.58;63.92;100546.53;4923112;28;65587;-35
2023/09/06 08:20:18;;;;;;;9.05;8.27;;;;;;;33.64;63.58;100541.16;4916347;28;69437;-36
2023/09/06 08:22:48;;;;;;;9.80;9.00;;;;;;;33.63;63.65;100551.22;4924223;28;65885;-35
2023/09/06 08:25:19;;;;;;;8.93;8.20;;;;;;;33.67;63.83;100535.22;4921592;28;69388;-35
2023/09/06 08:27:51;;;;;;;9.52;8.82;;;;;;;33.65;63.50;100538.19;4926176;28;66790;-35
2023/09/06 08:30:21;;;;;;;;;;;;;;;33.45;63.49;100532.38;4916499;28;70204;-35
2023/09/06 08:32:51;;;;;;;9.55;8.80;;;;;;;33.68;63.75;100526.00;4918215;28;66586;-35
2023/09/06 08:35:23;;;;;;;9.68;8.98;;;;;;;33.66;63.92;100511.84;4922167;28;68259;-36
2023/09/06 08:37:53;;;;;;;8.85;8.35;;;;;;;33.76;63.52;100522.84;4898292;28;65997;-36
2023/09/06 08:40:23;;;;;;;9.77;9.07;;;;;;;33.81;63.11;100520.22;4922092;28;70190;-35
2023/09/06 08:42:55;;;;;;;8.82;8.25;;;;;;;33.87;62.92;100515.66;4920126;28;66024;-35
2023/09/06 08:45:25;;;;;;;9.10;8.50;;;;;;;33.91;62.74;100519.56;4922310;28;69866;-35
2023/09/06 08:47:56;;;;;;;9.25;8.45;;;;;;;33.93;62.93;100517.38;4914606;28;65664;-36
2023/09/06 08:50:27;;;;;;;9.25;8.63;;;;;;;33.97;62.84;100515.81;4927652;28;70218;-36
2023/09/06 08:52:58;;;;;;;10.37;9.53;;;;;;;33.99;62.69;100505.50;4927283;28;65402;-35
2023/09/06 08:55:28;;;;;;;9.02;8.32;;;;;;;34.03;62.90;100509.38;4923955;28;69700;-36
2023/09/06 08:57:59;;;;;;;8.98;8.30;;;;;;;34.09;62.38;100493.97;4912764;28;66735;-36
2023/09/06 09:00:30;;;;;;;9.50;8.70;;;;;;;34.02;62.92;100494.13;4920425;28;71685;-37
2023/09/06 09:03:00;;;;;;;9.18;8.40;;;;;;;34.09;63.00;100505.69;4920807;28;65368;-36
2023/09/06 09:05:31;;;;;;;9.95;9.02;;;;;;;34.09;62.89;100500.22;4923283;28;70626;-36
2023/09/06 09:08:01;;;;;;;9.43;8.57;;;;;;;34.06;62.45;100484.41;4914810;28;64507;-37
2023/09/06 09:10:33;;;;;;;9.23;8.30;;;;;;;34.06;62.23;100500.75;4923843;28;70612;-36
2023/09/06 09:13:03;;;;;;;;;;;;;;;33.96;62.52;100516.88;4914926;28;66654;-37
2023/09/06 09:15:33;;;;;;;9.73;8.77;;;;;;;34.15;62.78;100521.00;4921549;28;69445;-35
2023/09/06 09:18:11;;;;;;;9.75;8.95;;;;;;;34.14;62.44;100519.38;4923474;28;66534;-37
2023/09/06 09:20:43;;;;;;;9.65;8.68;;;;;;;34.15;62.87;100526.44;4923982;28;70105;-36
2023/09/06 09:23:14;;;;;;;9.85;9.10;;;;;;;34.10;62.96;100515.50;4930830;28;64730;-35
2023/09/06 09:25:50;;;;;;;9.57;8.77;;;;;;;34.11;62.05;100525.31;4918175;28;69421;-37
2023/09/06 09:28:21;;;;;;;9.02;8.32;;;;;;;34.16;62.43;100522.66;4926137;28;66555;-36
2023/09/06 09:30:52;;;;;;;9.82;9.05;;;;;;;34.18;62.69;100525.94;4922230;28;70257;-35
2023/09/06 09:33:27;;;;;;;8.77;8.27;;;;;;;34.14;61.99;100530.25;4923324;28;66382;-36
2023/09/06 09:35:58;;;;;;;8.88;8.05;;;;;;;34.17;62.48;100535.19;4924326;28;69615;-37
2023/09/06 09:38:28;;;;;;;8.95;8.18;;;;;;;34.16;62.63;100527.28;4923847;28;66267;-36
2023/09/06 09:41:08;;;;;;;9.13;8.32;;;;;;;34.14;62.32;100535.69;4924089;28;69996;-35
2023/09/06 09:43:39;;;;;;;9.30;8.60;;;;;;;34.19;62.34;100541.22;4938335;28;66574;-36
2023/09/06 09:46:12;;;;;;;8.77;8.07;;;;;;;34.09;62.24;100527.44;4895865;28;69926;-35
2023/09/06 09:48:43;;;;;;;12.25;11.00;;;;;;;33.90;63.55;100542.38;4906938;28;66044;-36
2023/09/06 09:51:16;;;;;;;15.32;12.30;;;;;;;33.29;65.12;100490.50;4891878;28;70450;-36
2023/09/06 09:53:46;;;;;;;16.42;13.15;;;;;;;33.52;65.66;100560.25;4910514;28;66201;-36
2023/09/06 09:56:19;;;;;;;15.25;13.07;;;;;;;33.40;66.68;100564.91;4917395;28;70568;-36
2023/09/06 09:58:51;;;;;;;15.25;13.75;;;;;;;33.33;66.96;100563.19;4915944;28;65921;-37
2023/09/06 10:01:22;;;;;;;14.23;12.95;;;;;;;33.23;67.35;100564.91;4869974;28;70414;-36
2023/09/06 10:04:00;;;;;;;17.53;13.67;;;;;;;33.15;67.93;100571.53;4903849;28;66091;-36
2023/09/06 10:06:33;;;;;;;19.58;13.70;;;;;;;32.82;68.66;100521.47;4915920;28;70503;-36
2023/09/06 10:09:12;;;;;;;17.98;14.13;;;;;;;32.82;68.70;100524.19;4921248;28;65846;-38
2023/09/06 10:11:43;;;;;;;14.63;13.20;;;;;;;33.01;69.12;100559.31;4919364;28;70288;-35
2023/09/06 10:14:15;;;;;;;14.60;13.07;;;;;;;32.85;69.29;100528.31;4924965;28;66828;-36
2023/09/06 10:16:48;;;;;;;14.00;12.52;;;;;;;32.64;69.60;100505.34;4925020;28;70989;-38
2023/09/06 10:19:21;;;;;;;13.48;12.20;;;;;;;33.03;70.15;100573.50;4916282;28;66519;-36
2023/09/06 10:21:51;;;;;;;12.48;11.30;;;;;;;33.00;70.15;100574.81;4926057;28;69941;-34
2023/09/06 10:24:23;;;;;;;19.02;12.05;;;;;;;32.71;70.71;100535.91;4922782;28;66330;-36
2023/09/06 10:26:54;;;;;;;13.15;11.70;;;;;;;33.00;70.20;100579.41;4930231;28;69830;-37
2023/09/06 10:29:24;;;;;;;11.20;10.30;;;;;;;32.99;70.33;100588.59;4904522;28;67344;-37
2023/09/06 10:32:01;;;;;;;23.17;11.53;;;;;;;32.96;70.90;100589.06;4922709;28;69969;-35
2023/09/06 10:34:33;;;;;;;13.32;10.35;;;;;;;32.96;70.80;100583.63;4910773;28;66199;-37
2023/09/06 10:37:06;;;;;;;11.63;10.63;;;;;;;32.90;70.89;100586.28;4918433;28;69906;-36
2023/09/06 10:39:56;;;;;;;13.30;9.60;;;;;;;32.54;70.88;100532.28;4918320;28;65360;-35
2023/09/06 10:42:27;;;;;;;10.23;9.15;;;;;;;33.05;69.33;100590.38;4920381;28;68464;-35
2023/09/06 10:44:58;;;;;;;10.18;9.27;;;;;;;33.21;68.66;100592.34;4893043;28;66746;-35
2023/09/06 10:47:30;;;;;;;;;;;;;;;33.04;70.12;100599.59;4908395;28;69894;-36
2023/09/06 10:50:07;;;;;;;10.10;8.93;;;;;;;33.00;69.13;100563.94;4918598;28;66094;-35
2023/09/06 10:52:57;;;;;;;13.15;9.20;;;;;;;33.33;68.56;100612.13;4917269;28;69160;-36
2023/09/06 10:55:29;;;;;;;8.57;7.85;;;;;;;33.38;67.64;100620.38;4912568;28;66016;-36
2023/09/06 10:57:59;;;;;;;8.50;7.68;;;;;;;33.42;67.66;100614.44;4895288;28;69621;-35
2023/09/06 11:00:31;;;;;;;8.55;7.60;;;;;;;33.43;67.46;100621.53;4930876;28;66113;-35
2023/09/06 11:03:07;;;;;;;8.82;7.55;;;;;;;33.43;67.85;100622.34;4914425;28;68952;-35
2023/09/06 11:05:40;;;;;;;8.70;7.75;;;;;;;33.46;67.49;100626.47;4911181;28;66318;-36
2023/09/06 11:08:26;;;;;;;11.52;7.88;;;;;;;33.13;67.73;100581.84;4919061;28;69948;-35
2023/09/06 11:11:00;;;;;;;10.20;7.40;;;;;;;33.45;67.85;100630.28;4902592;28;66657;-38
2023/09/06 11:13:33;;;;;;;9.98;7.20;;;;;;;33.41;67.62;100618.25;4923159;28;69405;-36
2023/09/06 11:16:05;;;;;;;8.63;8.02;;;;;;;33.33;67.43;100609.41;4917688;28;66683;-37
2023/09/06 11:18:43;;;;;;;7.85;7.15;;;;;;;33.10;67.20;100582.34;4918703;28;69654;-36
2023/09/06 11:21:20;;;;;;;8.75;7.75;;;;;;;33.45;67.24;100641.16;4908138;28;66113;-36
2023/09/06 11:23:52;;;;;;;8.13;7.32;;;;;;;33.46;66.84;100648.22;4920093;28;70318;-36
2023/09/06 11:26:22;;;;;;;7.47;6.88;;;;;;;33.47;67.29;100647.19;4924464;28;64976;-35
2023/09/06 11:29:03;;;;;;;8.90;7.57;;;;;;;33.07;67.33;100588.22;4908772;28;70196;-34
2023/09/06 11:31:34;;;;;;;8.00;7.35;;;;;;;33.41;67.28;100637.28;4916601;28;65709;-35
2023/09/06 11:34:08;;;;;;;7.63;6.75;;;;;;;33.41;67.26;100640.00;4911456;28;70669;-35
2023/09/06 11:36:39;;;;;;;8.10;7.38;;;;;;;33.05;68.45;100642.03;4907859;28;66195;-35
2023/09/06 11:39:22;;;;;;;8.00;7.38;;;;;;;32.99;69.07;100657.38;4905088;28;70138;-35
2023/09/06 11:41:53;;;;;;;9.13;7.40;;;;;;;32.88;69.52;100664.47;4910274;28;65928;-35
2023/09/06 11:44:23;;;;;;;7.38;6.68;;;;;;;32.71;69.79;100647.25;4918710;28;68759;-35
2023/09/06 11:46:53;;;;;;;8.80;6.63;;;;;;;32.78;70.17;100661.53;4918795;28;65514;-36